createdAt,value
2023-05-22T00:02:23.442Z,18.95
2023-05-22T00:05:25.161Z,19.52
2023-05-22T00:08:29.646Z,18.45
2023-05-22T00:11:32.022Z,18.45
2023-05-22T00:14:33.626Z,22.02
2023-05-22T00:17:35.493Z,19.83
2023-05-22T00:20:38.879Z,19.92
2023-05-22T00:23:41.558Z,18.88
2023-05-22T00:26:43.355Z,19.27
2023-05-22T00:29:44.973Z,18.38
2023-05-22T00:32:46.748Z,18.08
2023-05-22T00:35:48.503Z,20.27
2023-05-22T00:38:50.170Z,19.17
2023-05-22T00:41:52.379Z,18.33
2023-05-22T00:44:54.001Z,19.70
2023-05-22T00:47:55.652Z,17.08
2023-05-22T00:50:58.715Z,20.55
2023-05-22T00:54:00.649Z,22.00
2023-05-22T00:57:03.668Z,20.52
2023-05-22T01:03:10.358Z,20.27
2023-05-22T01:06:16.096Z,19.33
2023-05-22T01:09:18.464Z,19.38
2023-05-22T01:12:25.873Z,21.77
2023-05-22T01:16:10.917Z,19.02
2023-05-22T01:19:47.463Z,20.35
2023-05-22T01:23:02.775Z,18.30
2023-05-22T01:26:19.010Z,17.95
2023-05-22T01:29:43.775Z,20.23
2023-05-22T01:32:48.443Z,21.15
2023-05-22T01:35:55.469Z,19.63
2023-05-22T01:39:01.339Z,20.60
2023-05-22T01:42:03.818Z,21.45
2023-05-22T01:45:06.271Z,19.75
2023-05-22T01:48:08.028Z,19.48
2023-05-22T01:51:19.073Z,19.77
2023-05-22T01:54:24.196Z,22.58
2023-05-22T01:57:30.832Z,18.05
2023-05-22T02:00:33.554Z,18.75
2023-05-22T02:03:36.435Z,20.83
2023-05-22T02:06:39.462Z,19.08
2023-05-22T02:09:42.120Z,20.30
2023-05-22T02:12:47.083Z,20.73
2023-05-22T02:15:49.221Z,20.27
2023-05-22T02:18:51.411Z,21.30
2023-05-22T02:21:53.252Z,19.17
2023-05-22T02:24:54.925Z,19.73
2023-05-22T02:27:56.615Z,22.35
2023-05-22T02:30:58.289Z,20.67
2023-05-22T02:34:00.194Z,20.83
2023-05-22T02:37:05.618Z,21.83
2023-05-22T02:40:08.616Z,23.95
2023-05-22T02:43:10.288Z,22.77
2023-05-22T02:46:12.031Z,21.77
2023-05-22T02:49:14.409Z,22.70
2023-05-22T02:52:16.137Z,20.27
2023-05-22T02:55:17.820Z,19.75
2023-05-22T02:58:21.198Z,21.13
2023-05-22T03:01:23.231Z,19.27
2023-05-22T03:04:24.914Z,22.05
2023-05-22T03:07:27.085Z,21.98
2023-05-22T03:10:29.036Z,21.90
2023-05-22T03:13:30.833Z,20.10
2023-05-22T03:16:32.902Z,20.35
2023-05-22T03:19:34.617Z,22.65
2023-05-22T03:22:36.284Z,21.23
2023-05-22T03:25:38.046Z,20.80
2023-05-22T03:28:39.732Z,21.30
2023-05-22T03:31:42.109Z,20.35
2023-05-22T03:34:46.735Z,19.20
2023-05-22T03:37:48.477Z,22.13
2023-05-22T03:40:50.972Z,19.52
2023-05-22T03:43:52.787Z,21.73
2023-05-22T03:46:56.406Z,22.00
2023-05-22T03:49:58.037Z,20.45
2023-05-22T03:52:59.860Z,19.83
2023-05-22T03:56:01.534Z,23.25
2023-05-22T03:59:03.402Z,20.90
2023-05-22T04:02:05.470Z,22.25
2023-05-22T04:05:08.595Z,18.88
2023-05-22T04:08:10.253Z,23.15
2023-05-22T04:11:15.425Z,19.58
2023-05-22T04:14:17.043Z,21.95
2023-05-22T04:17:18.676Z,19.65
2023-05-22T04:20:22.224Z,20.25
2023-05-22T04:23:25.665Z,22.77
2023-05-22T04:26:29.625Z,20.92
2023-05-22T04:29:31.229Z,20.83
2023-05-22T04:32:33.003Z,19.98
2023-05-22T04:35:36.455Z,21.10
2023-05-22T04:38:39.143Z,20.58
2023-05-22T04:41:41.250Z,22.23
2023-05-22T04:44:43.619Z,20.23
2023-05-22T04:47:46.459Z,21.75
2023-05-22T04:50:49.442Z,19.90
2023-05-22T04:53:51.966Z,22.25
2023-05-22T04:56:53.978Z,22.52
2023-05-22T04:59:57.538Z,23.85
2023-05-22T05:03:00.386Z,22.63
2023-05-22T05:06:02.488Z,20.80
2023-05-22T05:09:05.339Z,24.33
2023-05-22T05:12:07.301Z,21.08
2023-05-22T05:15:09.591Z,20.70
2023-05-22T05:18:12.298Z,21.15
2023-05-22T05:21:14.157Z,21.45
2023-05-22T05:24:19.784Z,20.57
2023-05-22T05:27:23.077Z,20.42
2023-05-22T05:30:25.078Z,23.35
2023-05-22T05:33:37.185Z,20.30
2023-05-22T05:36:59.567Z,22.85
2023-05-22T05:40:01.305Z,24.73
2023-05-22T05:46:06.210Z,21.98
2023-05-22T05:49:11.560Z,22.27
2023-05-22T05:52:15.116Z,23.35
2023-05-22T05:55:16.955Z,22.65
2023-05-22T05:58:18.985Z,22.25
2023-05-22T06:01:35.532Z,22.88
2023-05-22T06:04:38.441Z,20.83
2023-05-22T06:07:40.235Z,20.40
2023-05-22T06:10:43.834Z,26.45
2023-05-22T06:13:48.119Z,22.73
2023-05-22T06:16:49.971Z,23.10
2023-05-22T06:19:52.319Z,27.20
2023-05-22T06:22:53.980Z,22.90
2023-05-22T06:25:55.715Z,26.65
2023-05-22T06:28:58.323Z,19.42
2023-05-22T06:32:00.583Z,20.60
2023-05-22T06:35:06.609Z,22.45
2023-05-22T06:38:08.341Z,22.33
2023-05-22T06:41:10.230Z,22.08
2023-05-22T06:44:12.938Z,24.17
2023-05-22T06:50:17.039Z,22.83
2023-05-22T06:53:18.759Z,29.40
2023-05-22T06:56:22.794Z,23.85
2023-05-22T06:59:29.671Z,24.10
2023-05-22T07:02:34.414Z,23.80
2023-05-22T07:05:53.209Z,17.95
2023-05-22T07:08:56.202Z,17.23
2023-05-22T07:11:57.913Z,19.60
2023-05-22T07:15:00.292Z,19.75
2023-05-22T07:18:03.170Z,16.58
2023-05-22T07:21:05.137Z,17.20
2023-05-22T07:24:10.172Z,19.03
2023-05-22T07:27:15.705Z,15.75
2023-05-22T07:30:17.621Z,17.63
2023-05-22T07:33:21.352Z,17.20
2023-05-22T07:36:23.578Z,17.70
2023-05-22T07:39:25.241Z,16.95
2023-05-22T07:42:28.145Z,16.93
2023-05-22T07:45:31.034Z,17.75
2023-05-22T07:48:35.766Z,19.02
2023-05-22T07:51:37.550Z,14.98
2023-05-22T07:54:40.277Z,18.00
2023-05-22T07:57:44.956Z,18.20
2023-05-22T08:00:58.466Z,15.57
2023-05-22T08:04:00.594Z,14.02
2023-05-22T08:07:02.678Z,15.80
2023-05-22T08:10:13.127Z,16.17
2023-05-22T08:13:16.781Z,13.95
2023-05-22T08:16:18.528Z,14.25
2023-05-22T08:19:20.404Z,13.35
2023-05-22T08:22:22.276Z,14.95
2023-05-22T08:25:24.050Z,15.60
2023-05-22T08:28:25.892Z,13.25
2023-05-22T08:31:31.017Z,13.50
2023-05-22T08:34:33.124Z,11.52
2023-05-22T08:37:34.893Z,12.90
2023-05-22T08:40:38.742Z,13.73
2023-05-22T08:43:41.903Z,13.48
2023-05-22T08:46:48.462Z,13.13
2023-05-22T08:49:52.149Z,12.38
2023-05-22T08:52:58.990Z,11.75
2023-05-22T08:56:02.102Z,13.90
2023-05-22T08:59:04.752Z,11.98
2023-05-22T09:05:09.676Z,14.48
2023-05-22T09:11:22.528Z,11.60
2023-05-22T09:14:25.393Z,11.90
2023-05-22T09:17:27.327Z,12.00
2023-05-22T09:20:29.081Z,12.75
2023-05-22T09:23:30.833Z,14.90
2023-05-22T09:26:33.637Z,12.95
2023-05-22T09:29:48.738Z,12.82
2023-05-22T09:32:50.928Z,11.70
2023-05-22T09:35:53.584Z,11.45
2023-05-22T09:38:55.807Z,11.75
2023-05-22T09:42:01.376Z,11.45
2023-05-22T09:45:07.662Z,12.85
2023-05-22T09:48:09.963Z,11.52
2023-05-22T09:51:13.003Z,11.52
2023-05-22T09:54:16.182Z,14.73
2023-05-22T09:57:19.520Z,10.57
2023-05-22T10:00:24.143Z,11.63
2023-05-22T10:03:27.591Z,10.82
2023-05-22T10:06:31.485Z,11.10
2023-05-22T10:09:38.519Z,10.63
2023-05-22T10:13:03.367Z,10.60
2023-05-22T10:16:07.556Z,11.07
2023-05-22T10:19:10.253Z,12.10
2023-05-22T10:22:20.651Z,11.07
2023-05-22T10:25:22.942Z,10.35
2023-05-22T10:31:58.153Z,13.20
2023-05-22T10:35:10.253Z,11.23
2023-05-22T10:38:27.090Z,10.18
2023-05-22T10:41:28.886Z,11.27
2023-05-22T10:44:33.330Z,10.82
2023-05-22T10:47:35.261Z,11.00
2023-05-22T10:50:37.881Z,10.68
2023-05-22T10:53:43.226Z,10.57
2023-05-22T10:56:46.804Z,10.40
2023-05-22T10:59:48.583Z,11.98
2023-05-22T11:02:50.428Z,10.85
2023-05-22T11:05:57.297Z,10.77
2023-05-22T11:08:59.140Z,12.38
2023-05-22T11:12:24.510Z,11.55
2023-05-22T11:15:34.847Z,10.15
2023-05-22T11:18:36.680Z,10.70
2023-05-22T11:21:46.692Z,11.70
2023-05-22T11:24:48.788Z,10.45
2023-05-22T11:27:50.664Z,10.32
2023-05-22T11:30:52.490Z,11.05
2023-05-22T11:33:54.362Z,11.15
2023-05-22T11:37:00.131Z,10.88
2023-05-22T11:40:05.812Z,11.05
2023-05-22T11:43:07.491Z,10.30
2023-05-22T11:46:11.380Z,10.25
2023-05-22T11:49:13.309Z,10.73
2023-05-22T11:52:16.515Z,10.15
2023-05-22T11:55:18.153Z,10.57
2023-05-22T11:58:27.021Z,12.00
2023-05-22T12:01:28.719Z,9.50
2023-05-22T12:04:30.557Z,10.13
2023-05-22T12:07:32.314Z,9.73
2023-05-22T12:10:34.031Z,10.50
2023-05-22T12:13:35.726Z,10.97
2023-05-22T12:16:37.626Z,11.83
2023-05-22T12:19:43.410Z,12.98
2023-05-22T12:22:45.203Z,10.10
2023-05-22T12:25:46.940Z,11.98
2023-05-22T12:28:52.498Z,10.03
2023-05-22T12:31:54.273Z,10.13
2023-05-22T12:34:58.087Z,10.10
2023-05-22T12:37:59.703Z,10.35
2023-05-22T12:41:01.364Z,10.65
2023-05-22T12:44:04.093Z,11.45
2023-05-22T12:47:06.047Z,8.65
2023-05-22T12:50:08.432Z,9.20
2023-05-22T12:53:10.411Z,8.82
2023-05-22T12:56:12.755Z,9.20
2023-05-22T12:59:14.398Z,10.65
2023-05-22T13:02:16.054Z,13.68
2023-05-22T13:05:17.801Z,9.77
2023-05-22T13:08:20.318Z,11.98
2023-05-22T13:11:23.441Z,9.27
2023-05-22T13:14:25.217Z,11.40
2023-05-22T13:17:27.972Z,9.55
2023-05-22T13:20:29.657Z,10.15
2023-05-22T13:23:31.491Z,10.13
2023-05-22T13:26:33.186Z,9.18
2023-05-22T13:29:34.831Z,10.27
2023-05-22T13:32:36.561Z,9.35
2023-05-22T13:35:38.310Z,9.65
2023-05-22T13:38:40.059Z,10.75
2023-05-22T13:41:41.795Z,10.15
2023-05-22T13:44:43.450Z,9.70
2023-05-22T13:47:45.207Z,13.82
2023-05-22T13:53:48.520Z,9.00
2023-05-22T13:56:50.127Z,10.25
2023-05-22T13:59:52.240Z,9.60
2023-05-22T14:02:54.721Z,11.32
2023-05-22T14:05:56.809Z,11.15
2023-05-22T14:08:58.413Z,9.70
2023-05-22T14:12:00.108Z,9.45
2023-05-22T14:15:02.489Z,10.20
2023-05-22T14:18:04.194Z,9.63
2023-05-22T14:21:06.075Z,9.20
2023-05-22T14:24:08.958Z,10.73
2023-05-22T14:27:10.687Z,9.63
2023-05-22T14:30:13.756Z,9.98
2023-05-22T14:33:15.599Z,8.65
2023-05-22T14:36:17.915Z,9.00
2023-05-22T14:39:19.540Z,8.70
2023-05-22T14:42:21.096Z,8.98
2023-05-22T14:45:22.820Z,9.35
2023-05-22T14:48:26.432Z,9.88
2023-05-22T14:51:28.584Z,11.52
2023-05-22T14:54:30.424Z,13.93
2023-05-22T14:57:32.090Z,14.10
2023-05-22T15:00:33.674Z,11.18
2023-05-22T15:03:35.252Z,16.15
2023-05-22T15:06:36.892Z,13.60
2023-05-22T15:09:38.482Z,14.45
2023-05-22T15:12:40.463Z,14.87
2023-05-22T15:15:42.252Z,12.77
2023-05-22T15:18:43.935Z,12.55
2023-05-22T15:21:46.096Z,11.07
2023-05-22T15:24:48.843Z,12.48
2023-05-22T15:27:50.499Z,11.60
2023-05-22T15:30:52.270Z,12.20
2023-05-22T15:33:54.208Z,12.20
2023-05-22T15:36:55.805Z,11.07
2023-05-22T15:39:57.687Z,12.10
2023-05-22T15:43:01.780Z,12.88
2023-05-22T15:46:03.472Z,13.02
2023-05-22T15:49:06.097Z,10.70
2023-05-22T15:52:07.756Z,9.82
2023-05-22T15:55:09.489Z,10.93
2023-05-22T15:58:11.075Z,11.15
2023-05-22T16:01:12.836Z,11.57
2023-05-22T16:04:14.497Z,12.07
2023-05-22T16:07:18.782Z,10.55
2023-05-22T16:10:20.423Z,10.80
2023-05-22T16:13:22.076Z,12.10
2023-05-22T16:16:23.753Z,9.15
2023-05-22T16:19:25.549Z,10.23
2023-05-22T16:22:40.073Z,7.95
2023-05-22T16:25:50.691Z,7.75
2023-05-22T16:28:52.543Z,8.07
2023-05-22T16:31:56.928Z,7.45
2023-05-22T16:34:58.663Z,9.27
2023-05-22T16:38:00.484Z,8.68
2023-05-22T16:41:02.079Z,7.90
2023-05-22T16:44:03.823Z,10.67
2023-05-22T16:47:05.666Z,9.23
2023-05-22T16:50:08.109Z,9.45
2023-05-22T16:53:10.472Z,8.45
2023-05-22T16:56:12.612Z,7.85
2023-05-22T16:59:14.720Z,8.05
2023-05-22T17:02:16.431Z,8.95
2023-05-22T17:05:18.369Z,8.70
2023-05-22T17:08:19.998Z,9.25
2023-05-22T17:11:23.899Z,10.17
2023-05-22T17:14:26.393Z,10.23
2023-05-22T17:20:29.680Z,7.97
2023-05-22T17:23:31.303Z,8.97
2023-05-22T17:26:34.308Z,9.57
2023-05-22T17:29:35.964Z,10.48
2023-05-22T17:32:37.996Z,10.83
2023-05-22T17:35:39.733Z,8.48
2023-05-22T17:38:41.421Z,7.50
2023-05-22T17:41:42.992Z,8.70
2023-05-22T17:44:44.579Z,7.28
2023-05-22T17:47:47.005Z,8.25
2023-05-22T17:50:49.249Z,9.18
2023-05-22T17:53:55.876Z,8.23
2023-05-22T17:56:57.500Z,8.95
2023-05-22T17:59:59.136Z,10.17
2023-05-22T18:03:00.844Z,8.93
2023-05-22T18:06:02.581Z,9.27
2023-05-22T18:09:05.378Z,8.23
2023-05-22T18:12:08.105Z,9.00
2023-05-22T18:15:12.258Z,8.75
2023-05-22T18:18:14.084Z,8.50
2023-05-22T18:21:15.812Z,9.30
2023-05-22T18:24:17.508Z,11.47
2023-05-22T18:27:19.189Z,15.73
2023-05-22T18:30:20.835Z,13.88
2023-05-22T18:33:24.822Z,13.85
2023-05-22T18:36:27.413Z,17.65
2023-05-22T18:39:29.178Z,17.25
2023-05-22T18:42:30.816Z,21.13
2023-05-22T18:45:32.466Z,20.17
2023-05-22T18:48:34.106Z,22.65
2023-05-22T18:51:35.927Z,23.80
2023-05-22T18:54:37.817Z,29.53
2023-05-22T18:57:39.472Z,36.97
2023-05-22T19:00:41.322Z,41.53
2023-05-22T19:03:43.160Z,41.58
2023-05-22T19:06:45.923Z,43.55
2023-05-22T19:12:49.118Z,47.78
2023-05-22T19:15:50.732Z,46.78
2023-05-22T19:18:52.402Z,54.22
2023-05-22T19:21:54.295Z,53.70
2023-05-22T19:24:55.920Z,60.07
2023-05-22T19:27:57.538Z,60.40
2023-05-22T19:31:03.019Z,60.38
2023-05-22T19:34:04.888Z,63.05
2023-05-22T19:37:08.255Z,58.88
2023-05-22T19:40:11.055Z,64.13
2023-05-22T19:46:14.278Z,60.58
2023-05-22T19:49:15.925Z,52.80
2023-05-22T19:52:17.905Z,51.03
2023-05-22T19:55:19.539Z,48.20
2023-05-22T19:58:21.278Z,45.85
2023-05-22T20:01:23.155Z,42.38
2023-05-22T20:04:24.782Z,40.47
2023-05-22T20:07:26.375Z,41.35
2023-05-22T20:10:28.018Z,53.00
2023-05-22T20:13:29.650Z,51.28
2023-05-22T20:16:31.708Z,44.85
2023-05-22T20:19:34.602Z,34.90
2023-05-22T20:22:36.418Z,32.72
2023-05-22T20:25:38.101Z,31.08
2023-05-22T20:28:39.964Z,35.83
2023-05-22T20:31:41.733Z,29.58
2023-05-22T20:34:45.129Z,24.48
2023-05-22T20:37:48.422Z,23.77
2023-05-22T20:40:51.838Z,22.02
2023-05-22T20:43:54.474Z,21.90
2023-05-22T20:46:56.142Z,21.48
2023-05-22T20:49:57.903Z,19.60
2023-05-22T20:53:00.707Z,20.00
2023-05-22T20:56:02.380Z,19.02
2023-05-22T20:59:04.288Z,16.90
2023-05-22T21:02:05.974Z,16.58
2023-05-22T21:05:08.061Z,17.10
2023-05-22T21:08:09.710Z,16.30
2023-05-22T21:11:11.391Z,16.98
2023-05-22T21:14:13.074Z,13.88
2023-05-22T21:17:14.729Z,13.98
2023-05-22T21:20:16.448Z,15.00
2023-05-22T21:23:18.047Z,13.95
2023-05-22T21:26:22.349Z,17.17
2023-05-22T21:29:24.249Z,15.07
2023-05-22T21:32:26.080Z,15.15
2023-05-22T21:35:27.874Z,13.85
2023-05-22T21:38:29.807Z,12.93
2023-05-22T21:41:31.431Z,14.68
2023-05-22T21:44:33.071Z,16.55
2023-05-22T21:47:34.836Z,15.02
2023-05-22T21:50:36.449Z,17.65
2023-05-22T21:53:38.060Z,18.13
2023-05-22T21:56:39.718Z,17.70
2023-05-22T21:59:41.454Z,17.30
2023-05-22T22:02:43.376Z,17.45
2023-05-22T22:05:45.027Z,16.40
2023-05-22T22:08:47.482Z,17.70
2023-05-22T22:11:49.085Z,19.98
2023-05-22T22:14:51.023Z,15.43
2023-05-22T22:17:52.710Z,19.73
2023-05-22T22:20:55.795Z,16.48
2023-05-22T22:23:57.457Z,17.27
2023-05-22T22:26:59.102Z,19.85
2023-05-22T22:30:00.740Z,16.58
2023-05-22T22:33:02.978Z,18.80
2023-05-22T22:36:05.089Z,20.77
2023-05-22T22:39:07.261Z,20.60
2023-05-22T22:42:08.901Z,21.67
2023-05-22T22:45:10.773Z,20.40
2023-05-22T22:48:12.371Z,20.25
2023-05-22T22:51:14.514Z,23.50
2023-05-22T22:54:17.481Z,23.98
2023-05-22T23:00:20.909Z,24.20
2023-05-22T23:03:22.667Z,23.75
2023-05-22T23:06:24.433Z,24.42
2023-05-22T23:09:26.114Z,22.33
2023-05-22T23:12:28.148Z,24.90
2023-05-22T23:15:30.405Z,28.33
2023-05-22T23:18:32.133Z,25.60
2023-05-22T23:21:35.235Z,27.83
2023-05-22T23:24:36.922Z,27.50
2023-05-22T23:27:39.292Z,28.38
2023-05-22T23:30:40.976Z,27.85
2023-05-22T23:33:42.598Z,28.98
2023-05-22T23:36:44.337Z,27.20
2023-05-22T23:39:45.942Z,31.02
2023-05-22T23:42:48.357Z,31.65
2023-05-22T23:45:49.978Z,26.88
2023-05-22T23:48:51.693Z,29.23
2023-05-22T23:51:53.429Z,32.72
2023-05-22T23:54:55.011Z,32.25
2023-05-22T23:57:56.671Z,31.20
